ADDS METAR Data INFO
IDs: Format: Raw Decoded Include TAF

Data at: 1115 UTC 21 Feb 2018

KBTA 201515Z AUTO 31006KT 10SM -SN SCT014 OVC029 M09/M12 A3006 RMK AO2 T10951119
KBTA 201455Z AUTO 30006KT 10SM -SN BKN014 OVC029 M09/M12 A3004 RMK AO2 T10921117
KBTA 201435Z AUTO 31007KT 10SM BKN014 OVC030 M09/M12 A3003 RMK AO2 T10921116
KBTA 201415Z AUTO 30008KT 10SM OVC012 M09/M11 A3001 RMK AO2 T10911114
KBTA 201355Z AUTO 29008KT 10SM OVC012 M09/M11 A2999 RMK AO2 T10881108
KBTA 201335Z AUTO 30009KT 10SM SCT012 BKN035 OVC050 M08/M11 A2996 RMK AO2 T10851106
KBTA 201315Z AUTO 31007KT 10SM SCT031 OVC050 M08/M10 A2996 RMK AO2 T10801100
KBTA 201255Z AUTO 31006KT 10SM SCT012 OVC031 M08/M10 A2997 RMK AO2 T10801101
KBTA 201235Z AUTO 31008KT 10SM SCT012 OVC029 M08/M10 A2991 RMK AO2 T10781098
KBTA 201215Z AUTO 32007KT 10SM BKN010 BKN029 OVC049 M08/M09 A2993 RMK AO2 T10761094
KBTA 201155Z AUTO 31008KT 7SM OVC008 M07/M09 A2993 RMK AO2 T10751089 11055 21075
KBTA 201135Z AUTO 31007KT 5SM BR OVC008 M07/M08 A2993 RMK AO2 T10701082
KBTA 201115Z AUTO 31005KT 5SM BR OVC008 M07/M08 A2991 RMK AO2 T10671080
KBTA 201055Z AUTO 31007KT 4SM BR OVC008 M06/M08 A2989 RMK AO2 LTG DSNT E T10651077
KBTA 201035Z AUTO 32007KT 5SM BR OVC008 M06/M08 A2989 RMK AO2 T10651078
KBTA 201015Z AUTO 31006KT 4SM BR OVC008 M06/M08 A2989 RMK AO2 LTG DSNT SE T10651076
KBTA 200955Z AUTO 33006KT 5SM BR OVC008 M06/M08 A2986 RMK AO2 T10651077
KBTA 200935Z AUTO 32006KT 5SM BR OVC008 M06/M08 A2988 RMK AO2 T10651077
KBTA 200915Z AUTO 31007KT 5SM BR BKN008 OVC013 M06/M08 A2987 RMK AO2 T10651077
KBTA 200855Z AUTO 32008KT 4SM -SN BKN008 BKN013 OVC023 M06/M07 A2987 RMK AO2 T10641075
KBTA 200835Z AUTO 31005KT 2SM -SN OVC006 M06/M07 A2989 RMK AO2 T10621073
KBTA 200815Z AUTO 32005KT 2 1/2SM -SN OVC006 M06/M07 A2988 RMK AO2 T10601070
KBTA 200755Z AUTO 31004KT 4SM BR OVC006 M06/M07 A2987 RMK AO2 T10581070
KBTA 200735Z AUTO 32007KT 5SM -SN OVC008 M06/M07 A2985 RMK AO2 T10571069
KBTA 200715Z AUTO 32005KT 7SM BKN008 BKN018 OVC024 M06/M07 A2983 RMK AO2 LTG DSNT E T10561068
KBTA 200655Z AUTO 33004KT 2 1/2SM -SN SCT006 OVC018 M06/M07 A2984 RMK AO2 LTG DSNT SE T10561067
KBTA 200635Z AUTO 33004KT 1 1/2SM -SN BKN006 OVC018 M06/M06 A2984 RMK AO2 LTG DSNT NE THRU SE T10561065
KBTA 200615Z AUTO 31003KT 2SM -VCTSSN OVC004 M05/M06 A2984 RMK AO2 LTG DSNT ALQS T10551063
KBTA 200555Z AUTO 34005KT 5SM TS BR OVC004 M05/M06 A2983 RMK AO2 LTG DSNT NE THRU SE T10551063 11053 21058 400151058
KBTA 200535Z AUTO 35004KT 3SM -SN OVC004 M05/M06 A2983 RMK AO2 LTG DSNT ALQS T10541062
KBTA 200515Z AUTO 33007KT 4SM -SN BKN008 OVC019 M05/M06 A2982 RMK AO2 LTG DSNT E THRU S T10531065
KBTA 200455Z AUTO 33004KT 1 1/2SM -SN BKN006 OVC013 M05/M06 A2982 RMK AO2 LTG DSNT E THRU S T10541064
KBTA 200435Z AUTO 34005KT 4SM BR OVC004 M06/M06 A2983 RMK AO2 T10561065
KBTA 200415Z AUTO 33005KT 10SM OVC004 M06/M06 A2984 RMK AO2 T10561065
KBTA 200355Z AUTO 34007KT 10SM OVC004 M06/M06 A2984 RMK AO2 T10561065
KBTA 200335Z AUTO 34006KT 10SM OVC004 M06/M06 A2984 RMK AO2 T10561065
KBTA 200315Z AUTO 35007KT 10SM OVC004 M06/M06 A2984 RMK AO2 T10561065
KBTA 200255Z AUTO 34006KT 10SM OVC004 M06/M07 A2984 RMK AO2 T10571066
KBTA 200235Z AUTO 33005KT 10SM OVC004 M06/M07 A2985 RMK AO2 T10571066
KBTA 200215Z AUTO 33005KT 7SM OVC004 M06/M06 A2986 RMK AO2 LTG DSNT SE T10571065
KBTA 200155Z AUTO 34006KT 7SM OVC006 M06/M06 A2985 RMK AO2 T10571065
KBTA 200135Z AUTO 32006KT 7SM OVC006 M06/M07 A2987 RMK AO2 T10571066
KBTA 200115Z AUTO 33007KT 7SM OVC006 M06/M07 A2985 RMK AO2 T10571066
KBTA 200055Z AUTO 34005KT 7SM OVC006 M06/M07 A2984 RMK AO2 T10571067
KBTA 200035Z AUTO 35005KT 7SM OVC006 M06/M07 A2984 RMK AO2 T10571067
KBTA 200015Z AUTO 35005KT 7SM OVC004 M06/M06 A2985 RMK AO2 T10561065
KBTA 192355Z AUTO 35007KT 5SM BR OVC004 M06/M06 A2984 RMK AO2 T10561065 11047 21056
KBTA 192335Z AUTO 35007KT 5SM BR OVC004 M05/M06 A2984 RMK AO2 T10551065